Hunnestorp, Sweden

3:29 AM CEST on September 17, 2014 (GMT +0200)
Hemmeslov | Change Station
CLOSE
Current Station
Personal Weather Station
Location: Bastad, SE
Elevation: 33 ft
Nearby Weather Stations

Elev 33 ft 56.43 °N, 12.89 °E | Updated 9 minutes ago

Clear
Clear
47.8 °F
Feels Like 48 °F
N
0.0
Wind Variable Wind from East
Gusts 2.7 mph

Today
High -- | Low -- °F
--% Chance of Precip.
Yesterday
High -- | Low -- °F
Precip. -- in
6:43 AM 7:21 PM
Last Quarter, 40% visible
Pressure 30.24 in
Visibility 6.2 miles
Clouds
Windchill 48 °F
Dew Point 48 °F
Humidity 100%
Rainfall 0.00 in
Snow Depth Not available.
UV Not available.
Pollen Not available.
Air Quality Not available.
Flu Activity Not available.
METAR ESMT 170120Z AUTO 07009KT 9999 NCD 10/08 Q1024

More Conditions Fewer Conditions

Pressure 30.24 in
Visibility 6.2 miles
Clouds
Windchill 48 °F
Dew Point 48 °F
Humidity 100%
Rainfall 0.00 in
Snow Depth Not available.
UV Not available.
Pollen Not available.
Air Quality Not available.
Flu Activity Not available.
METAR ESMT 170120Z AUTO 07009KT 9999 NCD 10/08 Q1024

More Conditions Fewer Conditions

10-Day Weather Forecast

Almanac

Astronomy

Sep. 17, 2014 Rise Set
Actual Time 6:43 AM CEST 7:21 PM CEST
Civil Twilight 6:05 AM CEST 7:59 PM CEST
Nautical Twilight 5:19 AM CEST 8:44 PM CEST
Astronomical Twilight 4:29 AM CEST 9:33 PM CEST
Moon No Moon Rise 4:05 PM CEST
Length of Visible Light 13h 53m
Length of Day
12h 38m
Tomorrow will be 4m 41s shorter.
Last Quarter, 40% of the Moon is Illuminated
Sep 16
Last Quarter
Sep 24
New
Oct 1
First Quarter
Oct 8
Full
Oct 15
Last Quarter

Yesterday's Extremes

Country Highs Country Lows

Community

WunderPhotos

Upload Photos

1,753,943 photos uploaded!

Nearby

Snow Depth

Not available.

Earthquake Activity

City Distance Mag. Time & Date
No recent earthquake activity has been reported nearby.
Minimum magnitude displayed is 2.5.

Coastal Water Temperatures

Place Temperature
No Stations Reporting

Nearby Weather Stations